createdAt,value
2023-04-18T00:00:57.490Z,49.34
2023-04-18T00:01:57.527Z,48.61
2023-04-18T00:02:57.555Z,48.26
2023-04-18T00:03:57.553Z,49.95
2023-04-18T00:04:57.479Z,48.94
2023-04-18T00:05:57.442Z,49.32
2023-04-18T00:06:57.483Z,51.05
2023-04-18T00:07:57.431Z,50.43
2023-04-18T00:08:57.440Z,50.21
2023-04-18T00:09:57.430Z,49.67
2023-04-18T00:10:57.421Z,49.82
2023-04-18T00:11:57.409Z,51.21
2023-04-18T00:12:57.393Z,49.86
2023-04-18T00:13:57.464Z,49.49
2023-04-18T00:14:57.381Z,49.43
2023-04-18T00:15:57.385Z,50.16
2023-04-18T00:16:57.507Z,49.60
2023-04-18T00:17:57.498Z,50.80
2023-04-18T00:18:57.408Z,50.05
2023-04-18T00:19:57.361Z,48.93
2023-04-18T00:20:57.349Z,50.11
2023-04-18T00:21:57.349Z,49.64
2023-04-18T00:22:57.334Z,52.26
2023-04-18T00:23:57.313Z,50.17
2023-04-18T00:24:57.349Z,50.84
2023-04-18T00:25:57.328Z,49.91
2023-04-18T00:26:57.303Z,50.45
2023-04-18T00:27:57.300Z,48.52
2023-04-18T00:28:57.285Z,49.05
2023-04-18T00:29:57.286Z,48.53
2023-04-18T00:30:57.401Z,49.62
2023-04-18T00:31:57.274Z,49.90
2023-04-18T00:32:57.305Z,47.91
2023-04-18T00:33:57.256Z,48.23
2023-04-18T00:34:57.250Z,49.48
2023-04-18T00:35:57.260Z,50.51
2023-04-18T00:36:57.257Z,49.69
2023-04-18T00:37:57.230Z,49.32
2023-04-18T00:38:57.230Z,50.08
2023-04-18T00:39:57.215Z,51.66
2023-04-18T00:40:57.310Z,49.67
2023-04-18T00:41:57.233Z,49.21
2023-04-18T00:42:57.217Z,49.12
2023-04-18T00:43:57.220Z,49.21
2023-04-18T00:44:57.209Z,49.77
2023-04-18T00:45:57.274Z,48.48
2023-04-18T00:46:57.178Z,49.70
2023-04-18T00:47:57.222Z,50.54
2023-04-18T00:48:57.179Z,48.56
2023-04-18T00:49:57.153Z,49.86
2023-04-18T00:50:57.135Z,51.72
2023-04-18T00:51:57.142Z,49.44
2023-04-18T00:52:57.166Z,48.74
2023-04-18T00:53:57.152Z,49.97
2023-04-18T00:54:57.125Z,50.81
2023-04-18T00:55:57.112Z,51.08
2023-04-18T00:56:57.113Z,50.49
2023-04-18T00:57:57.090Z,50.15
2023-04-18T00:58:57.354Z,48.50
2023-04-18T00:59:57.097Z,51.27
2023-04-18T01:00:57.088Z,51.31
2023-04-18T01:01:57.133Z,50.70
2023-04-18T01:02:57.126Z,49.40
2023-04-18T01:03:57.118Z,49.02
2023-04-18T01:04:58.074Z,50.09
2023-04-18T01:05:57.063Z,50.82
2023-04-18T01:06:57.079Z,49.12
2023-04-18T01:07:57.045Z,50.30
2023-04-18T01:08:57.049Z,50.69
2023-04-18T01:09:57.045Z,49.41
2023-04-18T01:10:57.047Z,50.24
2023-04-18T01:11:57.036Z,49.74
2023-04-18T01:12:57.037Z,50.23
2023-04-18T01:13:57.054Z,49.82
2023-04-18T01:14:56.995Z,48.72
2023-04-18T01:15:57.059Z,49.29
2023-04-18T01:16:56.986Z,49.92
2023-04-18T01:17:56.977Z,50.62
2023-04-18T01:18:56.988Z,50.90
2023-04-18T01:19:57.006Z,50.29
2023-04-18T01:20:57.018Z,50.34
2023-04-18T01:21:56.958Z,51.45
2023-04-18T01:22:56.958Z,50.59
2023-04-18T01:23:56.943Z,52.05
2023-04-18T01:24:57.032Z,50.54
2023-04-18T01:25:56.933Z,50.38
2023-04-18T01:26:56.925Z,50.98
2023-04-18T01:27:56.917Z,51.14
2023-04-18T01:28:56.912Z,49.00
2023-04-18T01:29:56.925Z,51.04
2023-04-18T01:30:56.981Z,49.53
2023-04-18T01:31:56.886Z,50.85
2023-04-18T01:32:56.947Z,48.79
2023-04-18T01:33:56.875Z,50.16
2023-04-18T01:34:56.865Z,50.53
2023-04-18T01:35:56.876Z,47.22
2023-04-18T01:36:56.861Z,48.44
2023-04-18T01:37:56.858Z,48.30
2023-04-18T01:38:56.843Z,50.39
2023-04-18T01:39:56.842Z,48.31
2023-04-18T01:40:56.849Z,48.89
2023-04-18T01:41:56.824Z,48.44
2023-04-18T01:42:56.823Z,50.21
2023-04-18T01:43:56.818Z,49.91
2023-04-18T01:44:56.802Z,49.85
2023-04-18T01:45:56.810Z,49.19
2023-04-18T01:46:56.877Z,48.65
2023-04-18T01:47:56.879Z,50.29
2023-04-18T01:48:56.789Z,49.84
2023-04-18T01:49:56.776Z,49.80
2023-04-18T01:50:56.782Z,48.49
2023-04-18T01:51:56.757Z,49.45
2023-04-18T01:52:56.763Z,49.84
2023-04-18T01:53:56.769Z,49.10
2023-04-18T01:54:56.741Z,49.51
2023-04-18T01:55:56.749Z,49.52
2023-04-18T01:56:56.760Z,49.57
2023-04-18T01:57:56.721Z,49.29
2023-04-18T01:58:56.715Z,49.30
2023-04-18T01:59:56.710Z,50.03
2023-04-18T02:00:56.714Z,50.53
2023-04-18T02:01:56.782Z,48.05
2023-04-18T02:02:56.885Z,49.18
2023-04-18T02:03:56.836Z,49.70
2023-04-18T02:04:56.692Z,49.45
2023-04-18T02:05:56.665Z,48.79
2023-04-18T02:06:56.665Z,49.37
2023-04-18T02:07:56.661Z,49.95
2023-04-18T02:08:56.663Z,48.99
2023-04-18T02:09:56.661Z,51.86
2023-04-18T02:10:56.637Z,49.54
2023-04-18T02:11:57.633Z,50.39
2023-04-18T02:12:56.627Z,49.61
2023-04-18T02:13:56.639Z,50.89
2023-04-18T02:14:56.637Z,50.29
2023-04-18T02:15:56.664Z,50.06
2023-04-18T02:16:56.645Z,50.75
2023-04-18T02:17:56.667Z,49.71
2023-04-18T02:18:56.606Z,49.45
2023-04-18T02:19:56.591Z,50.65
2023-04-18T02:20:56.605Z,51.45
2023-04-18T02:21:56.567Z,51.99
2023-04-18T02:22:56.562Z,52.72
2023-04-18T02:23:56.574Z,51.50
2023-04-18T02:24:56.565Z,51.37
2023-04-18T02:25:56.559Z,51.40
2023-04-18T02:26:56.539Z,51.56
2023-04-18T02:27:56.545Z,52.89
2023-04-18T02:28:56.532Z,51.36
2023-04-18T02:29:56.541Z,50.66
2023-04-18T02:30:56.516Z,49.39
2023-04-18T02:31:56.558Z,49.50
2023-04-18T02:32:56.561Z,51.97
2023-04-18T02:33:56.505Z,51.73
2023-04-18T02:34:56.488Z,51.74
2023-04-18T02:35:56.490Z,51.93
2023-04-18T02:36:56.472Z,50.40
2023-04-18T02:37:56.477Z,52.33
2023-04-18T02:38:56.460Z,50.71
2023-04-18T02:39:56.454Z,52.59
2023-04-18T02:40:56.489Z,49.73
2023-04-18T02:41:56.438Z,50.52
2023-04-18T02:42:56.430Z,50.79
2023-04-18T02:43:56.425Z,51.48
2023-04-18T02:44:56.420Z,50.47
2023-04-18T02:45:56.458Z,49.77
2023-04-18T02:46:56.426Z,49.23
2023-04-18T02:47:56.824Z,50.28
2023-04-18T02:48:57.396Z,49.18
2023-04-18T02:49:56.525Z,51.72
2023-04-18T02:50:56.384Z,51.91
2023-04-18T02:51:56.425Z,51.12
2023-04-18T02:52:56.368Z,50.47
2023-04-18T02:53:56.611Z,51.57
2023-04-18T02:54:56.351Z,49.47
2023-04-18T02:55:56.362Z,49.48
2023-04-18T02:56:56.350Z,49.27
2023-04-18T02:57:56.678Z,50.01
2023-04-18T02:58:56.320Z,48.55
2023-04-18T02:59:56.337Z,49.67
2023-04-18T03:00:56.339Z,48.86
2023-04-18T03:01:56.350Z,49.38
2023-04-18T03:02:56.363Z,49.20
2023-04-18T03:03:56.299Z,51.26
2023-04-18T03:04:56.365Z,50.79
2023-04-18T03:05:56.301Z,51.15
2023-04-18T03:06:56.301Z,50.48
2023-04-18T03:07:56.274Z,50.94
2023-04-18T03:08:56.276Z,50.87
2023-04-18T03:09:56.259Z,50.61
2023-04-18T03:10:56.534Z,48.35
2023-04-18T03:11:56.248Z,51.76
2023-04-18T03:12:56.236Z,51.41
2023-04-18T03:13:56.232Z,49.86
2023-04-18T03:14:56.225Z,50.26
2023-04-18T03:15:56.268Z,50.99
2023-04-18T03:16:56.216Z,50.26
2023-04-18T03:17:56.226Z,51.36
2023-04-18T03:18:56.197Z,51.81
2023-04-18T03:19:56.192Z,50.64
2023-04-18T03:20:56.198Z,50.29
2023-04-18T03:21:56.243Z,53.83
2023-04-18T03:22:56.311Z,51.81
2023-04-18T03:23:56.178Z,51.35
2023-04-18T03:24:56.167Z,50.71
2023-04-18T03:25:56.156Z,51.61
2023-04-18T03:26:56.153Z,52.32
2023-04-18T03:27:56.151Z,51.34
2023-04-18T03:28:56.152Z,52.09
2023-04-18T03:29:56.122Z,53.00
2023-04-18T03:30:56.131Z,50.97
2023-04-18T03:31:56.136Z,52.90
2023-04-18T03:32:56.230Z,50.93
2023-04-18T03:33:56.117Z,50.64
2023-04-18T03:34:56.114Z,53.37
2023-04-18T03:35:56.114Z,53.38
2023-04-18T03:36:56.112Z,52.38
2023-04-18T03:37:56.088Z,53.06
2023-04-18T03:38:56.095Z,55.47
2023-04-18T03:39:56.092Z,55.34
2023-04-18T03:40:56.077Z,55.85
2023-04-18T03:41:56.092Z,55.74
2023-04-18T03:42:56.058Z,55.59
2023-04-18T03:43:56.048Z,55.49
2023-04-18T03:44:56.044Z,55.73
2023-04-18T03:45:56.117Z,54.41
2023-04-18T03:46:56.053Z,55.03
2023-04-18T03:47:56.085Z,56.16
2023-04-18T03:48:56.009Z,60.30
2023-04-18T03:49:56.017Z,56.11
2023-04-18T03:50:56.013Z,56.61
2023-04-18T03:51:55.996Z,56.23
2023-04-18T03:52:56.012Z,55.13
2023-04-18T03:53:55.982Z,55.51
2023-04-18T03:54:56.029Z,54.71
2023-04-18T03:55:55.974Z,54.42
2023-04-18T03:56:55.963Z,54.33
2023-04-18T03:57:55.963Z,53.40
2023-04-18T03:58:55.977Z,55.94
2023-04-18T03:59:55.948Z,55.50
2023-04-18T04:00:55.941Z,55.67
2023-04-18T04:01:55.992Z,53.11
2023-04-18T04:02:56.088Z,55.15
2023-04-18T04:03:56.108Z,56.81
2023-04-18T04:04:55.940Z,55.98
2023-04-18T04:05:55.906Z,54.80
2023-04-18T04:06:55.918Z,53.43
2023-04-18T04:07:55.896Z,54.54
2023-04-18T04:08:55.888Z,54.64
2023-04-18T04:09:55.923Z,55.39
2023-04-18T04:10:55.880Z,56.17
2023-04-18T04:11:55.875Z,55.96
2023-04-18T04:12:55.857Z,52.92
2023-04-18T04:13:55.853Z,54.19
2023-04-18T04:14:55.880Z,52.68
2023-04-18T04:15:55.872Z,54.30
2023-04-18T04:16:55.875Z,54.98
2023-04-18T04:17:55.891Z,56.16
2023-04-18T04:18:55.829Z,53.80
2023-04-18T04:19:55.803Z,54.04
2023-04-18T04:20:55.816Z,53.75
2023-04-18T04:21:55.835Z,54.55
2023-04-18T04:22:55.788Z,52.52
2023-04-18T04:23:55.788Z,53.05
2023-04-18T04:24:55.780Z,54.47
2023-04-18T04:25:55.782Z,54.08
2023-04-18T04:26:55.781Z,55.00
2023-04-18T04:27:55.753Z,54.05
2023-04-18T04:28:55.750Z,54.42
2023-04-18T04:29:55.748Z,54.79
2023-04-18T04:30:55.738Z,54.62
2023-04-18T04:31:55.790Z,55.69
2023-04-18T04:32:55.774Z,55.80
2023-04-18T04:33:55.728Z,55.83
2023-04-18T04:34:55.711Z,56.53
2023-04-18T04:35:55.706Z,55.96
2023-04-18T04:36:55.727Z,55.77
2023-04-18T04:37:55.688Z,54.36
2023-04-18T04:38:55.684Z,54.62
2023-04-18T04:39:55.679Z,55.84
2023-04-18T04:40:55.668Z,55.73
2023-04-18T04:41:55.853Z,54.68
2023-04-18T04:42:55.985Z,54.69
2023-04-18T04:43:55.659Z,54.91
2023-04-18T04:44:55.656Z,56.83
2023-04-18T04:45:55.681Z,56.23
2023-04-18T04:46:55.632Z,55.86
2023-04-18T04:47:55.655Z,56.60
2023-04-18T04:48:55.614Z,56.77
2023-04-18T04:49:55.611Z,54.83
2023-04-18T04:50:55.599Z,53.89
2023-04-18T04:51:55.600Z,54.05
2023-04-18T04:52:55.586Z,55.52
2023-04-18T04:53:55.594Z,55.17
2023-04-18T04:54:55.579Z,53.95
2023-04-18T04:55:55.561Z,54.74
2023-04-18T04:56:55.564Z,55.07
2023-04-18T04:57:55.551Z,54.15
2023-04-18T04:58:55.547Z,53.98
2023-04-18T04:59:55.545Z,54.41
2023-04-18T05:00:55.555Z,53.98
2023-04-18T05:01:55.549Z,56.15
2023-04-18T05:02:55.709Z,55.26
2023-04-18T05:03:55.606Z,56.07
2023-04-18T05:04:55.535Z,52.89
2023-04-18T05:05:56.502Z,55.72
2023-04-18T05:06:55.504Z,55.32
2023-04-18T05:07:55.522Z,55.20
2023-04-18T05:08:55.483Z,57.10
2023-04-18T05:09:55.501Z,54.21
2023-04-18T05:10:55.468Z,54.35
2023-04-18T05:11:55.482Z,55.93
2023-04-18T05:12:55.453Z,55.61
2023-04-18T05:13:55.462Z,55.46
2023-04-18T05:14:55.462Z,56.19
2023-04-18T05:15:55.428Z,55.89
2023-04-18T05:16:55.488Z,55.19
2023-04-18T05:17:55.453Z,54.80
2023-04-18T05:18:55.419Z,54.10
2023-04-18T05:19:55.410Z,56.07
2023-04-18T05:20:55.408Z,56.45
2023-04-18T05:21:55.382Z,57.35
2023-04-18T05:22:55.383Z,54.71
2023-04-18T05:23:55.394Z,55.82
2023-04-18T05:24:55.365Z,57.08
2023-04-18T05:25:55.387Z,55.53
2023-04-18T05:26:55.350Z,55.56
2023-04-18T05:27:55.352Z,56.15
2023-04-18T05:28:55.365Z,54.12
2023-04-18T05:29:55.391Z,56.06
2023-04-18T05:30:55.398Z,54.65
2023-04-18T05:31:55.324Z,55.63
2023-04-18T05:32:55.346Z,56.08
2023-04-18T05:33:55.305Z,55.88
2023-04-18T05:34:56.297Z,55.83
2023-04-18T05:35:55.287Z,54.52
2023-04-18T05:36:55.298Z,56.20
2023-04-18T05:37:55.275Z,53.56
2023-04-18T05:38:55.265Z,54.53
2023-04-18T05:39:55.266Z,54.63
2023-04-18T05:40:55.258Z,55.10
2023-04-18T05:41:55.256Z,55.59
2023-04-18T05:42:55.237Z,55.80
2023-04-18T05:44:04.885Z,54.59
2023-04-18T05:44:57.221Z,54.60
2023-04-18T05:45:57.657Z,55.44
2023-04-18T05:46:55.226Z,55.27
2023-04-18T05:47:55.223Z,54.93
2023-04-18T05:48:55.191Z,54.76
2023-04-18T05:49:56.192Z,53.88
2023-04-18T05:50:55.187Z,55.68
2023-04-18T05:51:55.206Z,55.18
2023-04-18T05:52:55.166Z,54.97
2023-04-18T05:53:55.169Z,54.22
2023-04-18T05:54:55.163Z,55.29
2023-04-18T05:55:55.154Z,54.97
2023-04-18T05:56:55.167Z,54.37
2023-04-18T05:57:55.153Z,53.67
2023-04-18T05:58:55.147Z,54.56
2023-04-18T05:59:55.125Z,52.53
2023-04-18T06:00:55.121Z,51.81
2023-04-18T06:01:55.114Z,53.18
2023-04-18T06:02:55.343Z,53.09
2023-04-18T06:03:55.432Z,53.21
2023-04-18T06:04:55.443Z,53.44
2023-04-18T06:05:55.200Z,54.78
2023-04-18T06:06:55.102Z,53.14
2023-04-18T06:07:55.100Z,54.47
2023-04-18T06:08:55.109Z,54.07
2023-04-18T06:09:55.061Z,53.92
2023-04-18T06:10:55.048Z,54.38
2023-04-18T06:11:56.041Z,53.57
2023-04-18T06:12:55.032Z,54.80
2023-04-18T06:13:55.049Z,54.42
2023-04-18T06:14:55.016Z,54.16
2023-04-18T06:15:55.060Z,56.64
2023-04-18T06:16:55.021Z,54.45
2023-04-18T06:17:55.199Z,55.42
2023-04-18T06:18:55.013Z,56.35
2023-04-18T06:19:55.000Z,54.60
2023-04-18T06:20:55.000Z,54.20
2023-04-18T06:21:54.987Z,57.26
2023-04-18T06:22:54.973Z,55.29
2023-04-18T06:23:54.968Z,54.91
2023-04-18T06:24:54.953Z,54.71
2023-04-18T06:25:54.952Z,53.68
2023-04-18T06:26:54.965Z,53.73
2023-04-18T06:27:54.940Z,56.56
2023-04-18T06:28:54.927Z,55.52
2023-04-18T06:29:54.971Z,53.05
2023-04-18T06:30:54.928Z,54.58
2023-04-18T06:31:54.920Z,55.92
2023-04-18T06:32:54.995Z,53.51
2023-04-18T06:33:54.914Z,53.82
2023-04-18T06:34:54.890Z,54.68
2023-04-18T06:35:54.904Z,54.46
2023-04-18T06:36:54.890Z,54.90
2023-04-18T06:37:54.909Z,55.42
2023-04-18T06:38:54.869Z,52.85
2023-04-18T06:39:54.866Z,52.60
2023-04-18T06:40:54.850Z,53.57
2023-04-18T06:41:54.840Z,54.71
2023-04-18T06:42:54.853Z,53.05
2023-04-18T06:44:55.867Z,53.18
2023-04-18T06:45:54.872Z,54.93
2023-04-18T06:46:54.816Z,53.83
2023-04-18T06:47:54.838Z,52.72
2023-04-18T06:48:54.799Z,54.49
2023-04-18T06:49:54.800Z,55.48
2023-04-18T06:50:54.778Z,53.57
2023-04-18T06:51:54.784Z,52.52
2023-04-18T06:52:54.780Z,55.21
2023-04-18T06:53:54.804Z,53.08
2023-04-18T06:54:54.786Z,55.32
2023-04-18T06:55:55.751Z,55.21
2023-04-18T06:56:54.728Z,54.82
2023-04-18T06:57:54.756Z,53.78
2023-04-18T06:58:54.720Z,55.24
2023-04-18T06:59:54.735Z,58.53
2023-04-18T07:00:54.747Z,51.96
2023-04-18T07:01:54.754Z,53.78
2023-04-18T07:02:55.830Z,52.17
2023-04-18T07:03:54.790Z,53.23
2023-04-18T07:04:54.677Z,52.03
2023-04-18T07:05:54.674Z,52.28
2023-04-18T07:06:54.673Z,54.13
2023-04-18T07:07:54.654Z,54.68
2023-04-18T07:08:54.638Z,52.67
2023-04-18T07:09:54.632Z,56.67
2023-04-18T07:10:54.635Z,53.24
2023-04-18T07:11:54.639Z,51.75
2023-04-18T07:12:54.631Z,54.48
2023-04-18T07:13:54.631Z,54.17
2023-04-18T07:14:54.620Z,54.72
2023-04-18T07:15:54.606Z,54.38
2023-04-18T07:16:54.650Z,53.47
2023-04-18T07:17:54.648Z,53.18
2023-04-18T07:18:54.570Z,53.55
2023-04-18T07:19:54.572Z,52.89
2023-04-18T07:20:54.579Z,52.84
2023-04-18T07:21:54.555Z,52.71
2023-04-18T07:22:54.572Z,52.94
2023-04-18T07:23:54.548Z,55.03
2023-04-18T07:24:54.539Z,54.74
2023-04-18T07:25:54.541Z,54.40
2023-04-18T07:26:55.197Z,51.37
2023-04-18T07:27:55.516Z,52.36
2023-04-18T07:28:54.516Z,53.19
2023-04-18T07:29:54.526Z,54.58
2023-04-18T07:30:54.539Z,54.44
2023-04-18T07:31:54.487Z,53.24
2023-04-18T07:32:54.511Z,54.20
2023-04-18T07:33:54.475Z,52.70
2023-04-18T07:34:54.472Z,51.12
2023-04-18T07:35:54.493Z,53.63
2023-04-18T07:36:54.487Z,52.49
2023-04-18T07:37:54.517Z,52.00
2023-04-18T07:38:54.443Z,52.33
2023-04-18T07:39:54.443Z,52.60
2023-04-18T07:40:54.442Z,53.26
2023-04-18T07:41:54.450Z,54.34
2023-04-18T07:42:54.428Z,53.65
2023-04-18T07:43:54.425Z,52.66
2023-04-18T07:44:54.411Z,52.76
2023-04-18T07:45:54.420Z,55.63
2023-04-18T07:46:54.410Z,54.08
2023-04-18T07:47:54.415Z,53.35
2023-04-18T07:48:54.388Z,52.46
2023-04-18T07:49:54.389Z,51.12
2023-04-18T07:50:54.424Z,51.47
2023-04-18T07:51:54.362Z,52.72
2023-04-18T07:52:54.376Z,50.13
2023-04-18T07:53:54.346Z,51.94
2023-04-18T07:54:54.348Z,52.65
2023-04-18T07:55:54.370Z,52.14
2023-04-18T07:56:54.334Z,53.24
2023-04-18T07:57:54.336Z,52.18
2023-04-18T07:58:54.320Z,51.71
2023-04-18T07:59:54.334Z,52.48
2023-04-18T08:00:54.308Z,52.36
2023-04-18T08:01:54.302Z,53.62
2023-04-18T08:02:54.361Z,55.17
2023-04-18T08:03:54.407Z,55.83
2023-04-18T08:04:54.456Z,52.99
2023-04-18T08:05:54.277Z,53.32
2023-04-18T08:06:57.201Z,53.03
2023-04-18T08:07:54.259Z,53.58
2023-04-18T08:08:54.251Z,52.95
2023-04-18T08:09:54.423Z,52.56
2023-04-18T08:10:54.251Z,54.17
2023-04-18T08:11:54.256Z,57.20
2023-04-18T08:12:54.237Z,56.42
2023-04-18T08:13:54.222Z,57.30
2023-04-18T08:14:54.228Z,58.24
2023-04-18T08:15:54.240Z,58.20
2023-04-18T08:16:54.233Z,55.37
2023-04-18T08:17:54.237Z,55.69
2023-04-18T08:18:54.195Z,54.19
2023-04-18T08:19:54.193Z,53.60
2023-04-18T08:20:54.208Z,59.03
2023-04-18T08:21:54.180Z,58.12
2023-04-18T08:23:05.583Z,56.41
2023-04-18T08:23:56.170Z,57.57
2023-04-18T08:25:04.469Z,54.75
2023-04-18T08:25:56.172Z,52.81
2023-04-18T08:26:54.132Z,55.61
2023-04-18T08:27:54.158Z,54.21
2023-04-18T08:28:54.139Z,53.94
2023-04-18T08:29:54.121Z,53.89
2023-04-18T08:30:54.115Z,54.86
2023-04-18T08:31:54.162Z,53.03
2023-04-18T08:32:54.208Z,53.26
2023-04-18T08:33:54.099Z,54.59
2023-04-18T08:34:54.106Z,54.18
2023-04-18T08:35:54.082Z,55.26
2023-04-18T08:36:54.340Z,56.06
2023-04-18T08:37:54.075Z,54.29
2023-04-18T08:38:54.058Z,54.80
2023-04-18T08:39:54.052Z,53.87
2023-04-18T08:40:54.054Z,54.37
2023-04-18T08:41:54.052Z,54.22
2023-04-18T08:42:54.036Z,53.76
2023-04-18T08:43:55.219Z,55.39
2023-04-18T08:44:54.045Z,57.62
2023-04-18T08:45:54.049Z,52.66
2023-04-18T08:46:54.083Z,54.30
2023-04-18T08:47:54.098Z,55.78
2023-04-18T08:48:53.993Z,52.73
2023-04-18T08:49:53.978Z,56.28
2023-04-18T08:50:53.986Z,56.20
2023-04-18T08:51:53.963Z,53.89
2023-04-18T08:52:53.965Z,52.78
2023-04-18T08:53:53.953Z,53.45
2023-04-18T08:54:53.941Z,52.77
2023-04-18T08:55:53.969Z,52.27
2023-04-18T08:56:53.952Z,51.70
2023-04-18T08:57:53.960Z,52.01
2023-04-18T08:58:53.921Z,52.24
2023-04-18T08:59:53.934Z,53.18
2023-04-18T09:00:53.926Z,53.49
2023-04-18T09:01:54.276Z,52.15
2023-04-18T09:02:53.979Z,52.41
2023-04-18T09:03:53.919Z,52.27
2023-04-18T09:04:53.885Z,52.67
2023-04-18T09:05:53.876Z,55.28
2023-04-18T09:06:53.914Z,52.54
2023-04-18T09:07:53.878Z,52.65
2023-04-18T09:08:53.870Z,53.87
2023-04-18T09:09:53.851Z,52.81
2023-04-18T09:10:54.854Z,52.46
2023-04-18T09:11:53.829Z,53.16
2023-04-18T09:12:53.853Z,53.35
2023-04-18T09:13:53.844Z,55.82
2023-04-18T09:14:53.817Z,54.71
2023-04-18T09:15:53.811Z,54.13
2023-04-18T09:16:53.856Z,51.97
2023-04-18T09:17:53.874Z,52.79
2023-04-18T09:18:53.794Z,53.41
2023-04-18T09:19:53.786Z,55.73
2023-04-18T09:20:53.782Z,53.62
2023-04-18T09:21:53.781Z,54.34
2023-04-18T09:22:53.775Z,54.23
2023-04-18T09:23:53.776Z,52.87
2023-04-18T09:24:53.832Z,50.18
2023-04-18T09:25:53.769Z,51.60
2023-04-18T09:26:53.797Z,54.80
2023-04-18T09:27:53.763Z,53.53
2023-04-18T09:28:54.057Z,51.94
2023-04-18T09:29:57.295Z,59.91
2023-04-18T09:30:53.721Z,52.62
2023-04-18T09:31:53.730Z,51.64
2023-04-18T09:32:53.709Z,54.45
2023-04-18T09:33:53.732Z,51.84
2023-04-18T09:34:53.699Z,53.47
2023-04-18T09:35:53.704Z,55.85
2023-04-18T09:36:53.697Z,55.14
2023-04-18T09:37:53.696Z,52.78
2023-04-18T09:38:56.221Z,53.87
2023-04-18T09:39:54.676Z,53.37
2023-04-18T09:40:53.653Z,52.63
2023-04-18T09:41:53.654Z,55.63
2023-04-18T09:42:53.640Z,51.99
2023-04-18T09:43:53.638Z,53.38
2023-04-18T09:44:55.097Z,53.42
2023-04-18T09:45:53.680Z,53.64
2023-04-18T09:46:53.614Z,56.34
2023-04-18T09:47:53.715Z,54.26
2023-04-18T09:48:53.602Z,53.26
2023-04-18T09:49:53.594Z,53.22
2023-04-18T09:50:53.588Z,53.28
2023-04-18T09:51:53.575Z,53.82
2023-04-18T09:52:53.561Z,53.74
2023-04-18T09:53:53.583Z,52.15
2023-04-18T09:54:53.567Z,52.45
2023-04-18T09:55:54.872Z,52.48
2023-04-18T09:56:53.550Z,52.78
2023-04-18T09:57:53.532Z,54.48
2023-04-18T09:58:53.530Z,55.17
2023-04-18T09:59:53.542Z,54.63
2023-04-18T10:00:53.510Z,54.98
2023-04-18T10:01:53.793Z,55.18
2023-04-18T10:02:53.609Z,57.08
2023-04-18T10:03:53.562Z,56.78
2023-04-18T10:04:53.616Z,58.28
2023-04-18T10:05:53.955Z,54.96
2023-04-18T10:06:53.470Z,54.01
2023-04-18T10:07:53.464Z,54.19
2023-04-18T10:08:53.458Z,53.59
2023-04-18T10:09:53.459Z,52.88
2023-04-18T10:10:53.441Z,53.30
2023-04-18T10:11:53.426Z,53.24
2023-04-18T10:12:53.424Z,53.18
2023-04-18T10:13:53.433Z,53.23
2023-04-18T10:14:53.420Z,52.28
2023-04-18T10:15:53.472Z,54.00
2023-04-18T10:16:53.404Z,53.71
2023-04-18T10:18:03.674Z,53.45
2023-04-18T10:18:55.389Z,55.58
2023-04-18T10:19:53.365Z,53.10
2023-04-18T10:20:53.400Z,53.60
2023-04-18T10:21:54.236Z,53.57
2023-04-18T10:22:53.340Z,52.78
2023-04-18T10:23:53.341Z,54.03
2023-04-18T10:24:53.704Z,53.47
2023-04-18T10:25:53.356Z,53.95
2023-04-18T10:26:53.321Z,54.20
2023-04-18T10:27:53.317Z,54.98
2023-04-18T10:28:53.759Z,53.61
2023-04-18T10:29:53.313Z,53.08
2023-04-18T10:30:53.316Z,52.95
2023-04-18T10:31:54.341Z,53.31
2023-04-18T10:32:53.346Z,52.82
2023-04-18T10:34:03.784Z,57.89
2023-04-18T10:34:55.258Z,55.29
2023-04-18T10:35:53.255Z,51.65
2023-04-18T10:36:53.239Z,52.74
2023-04-18T10:37:53.247Z,53.59
2023-04-18T10:38:53.249Z,51.74
2023-04-18T10:39:53.237Z,52.47
2023-04-18T10:40:53.227Z,52.55
2023-04-18T10:41:53.212Z,53.38
2023-04-18T10:42:53.196Z,53.55
2023-04-18T10:43:53.224Z,53.53
2023-04-18T10:44:53.211Z,51.49
2023-04-18T10:45:53.173Z,53.96
2023-04-18T10:46:53.293Z,51.86
2023-04-18T10:47:53.207Z,52.23
2023-04-18T10:48:53.168Z,51.78
2023-04-18T10:49:53.250Z,52.41
2023-04-18T10:50:53.157Z,53.16
2023-04-18T10:51:53.156Z,49.55
2023-04-18T10:52:53.127Z,51.92
2023-04-18T10:53:53.169Z,51.90
2023-04-18T10:54:53.154Z,53.04
2023-04-18T10:55:53.116Z,52.65
2023-04-18T10:56:53.106Z,51.18
2023-04-18T10:57:53.095Z,50.39
2023-04-18T10:58:53.114Z,52.73
2023-04-18T10:59:53.110Z,52.02
2023-04-18T11:00:53.125Z,51.31
2023-04-18T11:01:53.152Z,51.53
2023-04-18T11:02:53.298Z,50.84
2023-04-18T11:03:53.130Z,51.31
2023-04-18T11:04:53.082Z,51.36
2023-04-18T11:05:53.089Z,52.46
2023-04-18T11:06:53.039Z,51.56
2023-04-18T11:07:53.053Z,54.10
2023-04-18T11:08:53.031Z,52.70
2023-04-18T11:09:53.030Z,51.81
2023-04-18T11:10:53.033Z,53.69
2023-04-18T11:11:53.275Z,52.05
2023-04-18T11:12:53.021Z,53.28
2023-04-18T11:13:52.991Z,53.51
2023-04-18T11:14:52.983Z,53.28
2023-04-18T11:15:52.977Z,51.51
2023-04-18T11:16:53.067Z,52.59
2023-04-18T11:17:53.042Z,54.24
2023-04-18T11:18:52.951Z,55.06
2023-04-18T11:19:53.960Z,55.13
2023-04-18T11:20:52.943Z,53.88
2023-04-18T11:21:52.969Z,54.18
2023-04-18T11:22:52.943Z,54.98
2023-04-18T11:23:52.929Z,52.16
2023-04-18T11:24:52.922Z,52.72
2023-04-18T11:25:52.920Z,52.51
2023-04-18T11:26:52.907Z,53.13
2023-04-18T11:27:52.936Z,51.20
2023-04-18T11:28:52.934Z,52.64
2023-04-18T11:29:52.908Z,53.00
2023-04-18T11:30:52.880Z,51.66
2023-04-18T11:31:53.674Z,52.05
2023-04-18T11:32:52.954Z,50.63
2023-04-18T11:33:52.887Z,50.28
2023-04-18T11:34:52.865Z,51.79
2023-04-18T11:35:52.852Z,52.37
2023-04-18T11:36:52.840Z,53.48
2023-04-18T11:37:53.051Z,52.70
2023-04-18T11:38:52.826Z,52.64
2023-04-18T11:39:52.820Z,50.86
2023-04-18T11:40:52.811Z,51.81
2023-04-18T11:41:52.809Z,52.19
2023-04-18T11:42:52.834Z,51.76
2023-04-18T11:43:52.789Z,51.15
2023-04-18T11:44:52.801Z,51.95
2023-04-18T11:45:52.816Z,52.65
2023-04-18T11:46:52.801Z,51.21
2023-04-18T11:47:52.883Z,51.79
2023-04-18T11:48:52.773Z,51.91
2023-04-18T11:49:53.796Z,51.95
2023-04-18T11:50:52.768Z,52.88
2023-04-18T11:51:52.747Z,54.03
2023-04-18T11:52:52.743Z,52.63
2023-04-18T11:53:52.758Z,50.18
2023-04-18T11:54:52.727Z,52.02
2023-04-18T11:55:52.869Z,53.48
2023-04-18T11:56:52.709Z,53.68
2023-04-18T11:57:52.716Z,54.53
2023-04-18T11:58:52.709Z,52.57
2023-04-18T11:59:52.685Z,52.89
2023-04-18T12:00:52.686Z,54.12
2023-04-18T12:01:53.223Z,51.82
2023-04-18T12:02:53.788Z,54.64
2023-04-18T12:03:52.950Z,54.53
2023-04-18T12:04:52.987Z,53.77
2023-04-18T12:05:52.749Z,52.52
2023-04-18T12:06:52.700Z,52.68
2023-04-18T12:07:52.668Z,52.81
2023-04-18T12:08:53.975Z,51.32
2023-04-18T12:09:52.721Z,49.03
2023-04-18T12:10:52.691Z,51.47
2023-04-18T12:11:52.644Z,51.11
2023-04-18T12:12:52.617Z,50.03
2023-04-18T12:13:52.608Z,51.58
2023-04-18T12:14:52.616Z,52.39
2023-04-18T12:15:52.681Z,51.71
2023-04-18T12:16:52.580Z,50.48
2023-04-18T12:17:52.606Z,50.19
2023-04-18T12:18:52.574Z,50.54
2023-04-18T12:19:52.568Z,51.17
2023-04-18T12:20:52.574Z,50.92
2023-04-18T12:21:52.546Z,51.17
2023-04-18T12:22:52.545Z,51.46
2023-04-18T12:23:52.544Z,50.83
2023-04-18T12:24:52.525Z,51.14
2023-04-18T12:25:52.541Z,50.41
2023-04-18T12:26:52.544Z,51.93
2023-04-18T12:27:52.498Z,51.30
2023-04-18T12:28:52.545Z,52.23
2023-04-18T12:29:52.495Z,51.50
2023-04-18T12:30:52.485Z,52.64
2023-04-18T12:31:52.762Z,54.05
2023-04-18T12:32:52.482Z,52.14
2023-04-18T12:33:52.455Z,55.78
2023-04-18T12:34:52.445Z,52.64
2023-04-18T12:35:52.450Z,53.15
2023-04-18T12:36:52.446Z,53.08
2023-04-18T12:37:52.442Z,51.53
2023-04-18T12:38:52.425Z,52.90
2023-04-18T12:39:52.403Z,53.41
2023-04-18T12:40:52.453Z,53.52
2023-04-18T12:41:52.402Z,51.73
2023-04-18T12:42:52.452Z,55.08
2023-04-18T12:43:52.385Z,53.60
2023-04-18T12:44:52.384Z,54.14
2023-04-18T12:45:52.401Z,53.71
2023-04-18T12:46:52.436Z,56.57
2023-04-18T12:47:52.490Z,53.91
2023-04-18T12:48:52.352Z,53.55
2023-04-18T12:49:52.363Z,53.70
2023-04-18T12:50:52.347Z,52.92
2023-04-18T12:51:52.344Z,53.38
2023-04-18T12:52:52.328Z,54.50
2023-04-18T12:53:52.338Z,53.70